Sant Josep de sa Talaia, Spain
Current Conditions -  °F | °C
As of 3:30 PM on Tuesday 27 Jan 2015 (Local Time) from LEIB Reporting Station
Few Clouds Few Clouds  
Wind Chill: 57°   Ceiling: Unl
Heat Index: 57°   Visibility: 6mi
Dew Point: 48°   Wind: 16mph
Humidity: 72%   Direction: 240°WSW
Pressure: 30.18"   Gusts: NA
Location:  38.92°N, 1.28°E
Report Text: LEIB 271430Z 24014KT 9999 FEW035 14/09 Q1022 NOSIG
Loading
Personal Weather Stations






























Interactive Weather Map New forecast layout! Learn more

10-Day Weather Forecast

Advertisements
Track Severe Weather on mobile